createdAt,value
2023-01-25T00:04:37.868Z,35.60
2023-01-25T00:09:39.265Z,35.70
2023-01-25T00:14:40.671Z,35.80
2023-01-25T00:19:42.101Z,35.60
2023-01-25T00:24:43.507Z,35.40
2023-01-25T00:29:45.032Z,35.30
2023-01-25T00:34:46.451Z,35.20
2023-01-25T00:39:47.902Z,35.10
2023-01-25T00:44:49.295Z,35.00
2023-01-25T00:49:50.707Z,35.00
2023-01-25T00:54:52.135Z,34.80
2023-01-25T00:59:53.571Z,35.00
2023-01-25T01:04:55.015Z,35.10
2023-01-25T01:09:56.473Z,35.20
2023-01-25T01:14:57.922Z,35.10
2023-01-25T01:19:59.341Z,35.10
2023-01-25T01:25:00.743Z,35.20
2023-01-25T01:30:02.166Z,35.20
2023-01-25T01:35:03.573Z,35.30
2023-01-25T01:40:04.985Z,35.50
2023-01-25T01:45:06.708Z,35.40
2023-01-25T01:50:08.303Z,35.40
2023-01-25T01:55:10.056Z,35.50
2023-01-25T02:00:11.684Z,35.40
2023-01-25T02:05:13.100Z,35.40
2023-01-25T02:10:14.494Z,35.70
2023-01-25T02:15:15.932Z,35.40
2023-01-25T02:20:17.360Z,35.50
2023-01-25T02:25:18.769Z,35.60
2023-01-25T02:30:20.172Z,35.40
2023-01-25T02:35:21.599Z,35.80
2023-01-25T02:40:23.038Z,35.70
2023-01-25T02:45:24.453Z,34.90
2023-01-25T02:50:25.844Z,34.90
2023-01-25T02:55:27.255Z,34.80
2023-01-25T03:00:28.682Z,34.70
2023-01-25T03:05:30.090Z,34.70
2023-01-25T03:10:31.513Z,34.80
2023-01-25T03:15:32.991Z,34.80
2023-01-25T03:20:34.412Z,34.90
2023-01-25T03:25:35.832Z,34.90
2023-01-25T03:30:37.256Z,34.90
2023-01-25T03:35:38.671Z,34.90
2023-01-25T03:40:40.067Z,35.00
2023-01-25T03:45:41.498Z,35.10
2023-01-25T03:50:42.941Z,35.20
2023-01-25T03:55:44.432Z,35.30
2023-01-25T04:00:45.869Z,35.30
2023-01-25T04:05:47.292Z,35.30
2023-01-25T04:10:48.689Z,35.30
2023-01-25T04:15:50.108Z,35.30
2023-01-25T04:20:51.549Z,35.30
2023-01-25T04:25:52.975Z,35.30
2023-01-25T04:30:54.387Z,35.20
2023-01-25T04:35:55.797Z,35.30
2023-01-25T04:40:57.199Z,35.20
2023-01-25T04:45:58.628Z,35.00
2023-01-25T04:51:00.050Z,34.90
2023-01-25T04:56:01.486Z,34.70
2023-01-25T05:01:02.959Z,34.50
2023-01-25T05:06:04.401Z,34.50
2023-01-25T05:11:05.825Z,34.40
2023-01-25T05:16:08.962Z,34.30
2023-01-25T05:21:10.509Z,34.30
2023-01-25T05:26:11.918Z,34.40
2023-01-25T05:31:13.351Z,34.40
2023-01-25T05:36:14.799Z,34.50
2023-01-25T05:41:16.206Z,34.50
2023-01-25T05:46:17.674Z,34.60
2023-01-25T05:51:19.114Z,34.60
2023-01-25T05:56:20.605Z,34.80
2023-01-25T06:01:22.074Z,34.80
2023-01-25T06:06:23.647Z,34.90
2023-01-25T06:11:25.099Z,34.90
2023-01-25T06:16:26.522Z,35.00
2023-01-25T06:21:27.925Z,34.90
2023-01-25T06:26:29.336Z,35.00
2023-01-25T06:31:30.799Z,35.00
2023-01-25T06:36:32.245Z,35.00
2023-01-25T06:41:34.829Z,35.00
2023-01-25T06:46:36.261Z,34.80
2023-01-25T06:51:37.687Z,34.90
2023-01-25T06:56:39.096Z,35.10
2023-01-25T07:01:40.663Z,34.90
2023-01-25T07:06:42.097Z,34.70
2023-01-25T07:11:43.524Z,34.60
2023-01-25T07:16:44.932Z,34.50
2023-01-25T07:21:46.337Z,34.50
2023-01-25T07:26:47.775Z,34.40
2023-01-25T07:31:49.255Z,34.40
2023-01-25T07:36:50.774Z,34.50
2023-01-25T07:41:52.195Z,35.10
2023-01-25T07:46:53.603Z,34.50
2023-01-25T07:51:55.017Z,34.60
2023-01-25T07:56:56.441Z,34.60
2023-01-25T08:01:58.001Z,33.70
2023-01-25T08:06:59.409Z,34.40
2023-01-25T08:12:00.809Z,34.50
2023-01-25T08:17:02.203Z,35.10
2023-01-25T08:22:03.600Z,34.60
2023-01-25T08:27:05.048Z,34.80
2023-01-25T08:32:06.517Z,34.50
2023-01-25T08:37:07.985Z,34.60
2023-01-25T08:42:09.433Z,34.70
2023-01-25T08:47:10.851Z,34.80
2023-01-25T08:52:12.261Z,34.50
2023-01-25T08:57:13.667Z,34.20
2023-01-25T09:02:15.119Z,33.80
2023-01-25T09:07:16.564Z,33.40
2023-01-25T09:12:17.975Z,33.00
2023-01-25T09:17:19.408Z,32.70
2023-01-25T09:22:20.875Z,32.30
2023-01-25T09:27:22.295Z,32.00
2023-01-25T09:32:23.850Z,31.70
2023-01-25T09:37:25.651Z,31.50
2023-01-25T09:42:27.084Z,31.80
2023-01-25T09:47:28.548Z,32.20
2023-01-25T09:52:29.968Z,32.60
2023-01-25T09:57:31.369Z,32.90
2023-01-25T10:02:32.848Z,33.00
2023-01-25T10:07:34.348Z,33.20
2023-01-25T10:12:35.758Z,33.00
2023-01-25T10:17:37.198Z,32.90
2023-01-25T10:22:38.617Z,33.20
2023-01-25T10:27:40.016Z,33.50
2023-01-25T10:32:51.057Z,33.60
2023-01-25T10:37:57.037Z,33.80
2023-01-25T10:42:58.440Z,33.90
2023-01-25T10:47:59.846Z,34.00
2023-01-25T10:53:01.249Z,34.00
2023-01-25T10:58:02.658Z,33.80
2023-01-25T11:03:04.156Z,33.90
2023-01-25T11:08:05.620Z,34.00
2023-01-25T11:13:07.067Z,34.30
2023-01-25T11:18:08.484Z,34.60
2023-01-25T11:23:09.881Z,34.70
2023-01-25T11:28:11.330Z,34.70
2023-01-25T11:33:12.899Z,34.50
2023-01-25T11:38:14.343Z,34.30
2023-01-25T11:43:15.774Z,34.00
2023-01-25T11:48:17.174Z,33.80
2023-01-25T11:53:18.568Z,32.90
2023-01-25T11:58:19.963Z,32.60
2023-01-25T12:03:21.422Z,32.40
2023-01-25T12:08:22.829Z,29.40
2023-01-25T12:13:24.310Z,25.40
2023-01-25T12:18:25.749Z,24.60
2023-01-25T12:23:27.161Z,24.10
2023-01-25T12:28:28.694Z,24.80
2023-01-25T12:33:31.527Z,24.30
2023-01-25T12:38:33.058Z,25.40
2023-01-25T12:43:34.495Z,26.30
2023-01-25T12:48:35.914Z,27.00
2023-01-25T12:53:37.311Z,27.40
2023-01-25T12:58:38.844Z,27.70
2023-01-25T13:03:40.251Z,27.80
2023-01-25T13:08:41.692Z,27.90
2023-01-25T13:13:43.183Z,27.90
2023-01-25T13:18:44.727Z,27.90
2023-01-25T13:23:46.166Z,27.90
2023-01-25T13:28:50.694Z,27.90
2023-01-25T13:33:52.102Z,27.80
2023-01-25T13:38:53.529Z,27.80
2023-01-25T13:43:54.938Z,27.80
2023-01-25T13:48:56.393Z,27.70
2023-01-25T13:53:57.824Z,27.70
2023-01-25T13:58:59.236Z,27.70
2023-01-25T14:04:00.647Z,27.60
2023-01-25T14:09:02.051Z,27.60
2023-01-25T14:14:03.467Z,27.50
2023-01-25T14:19:04.918Z,27.70
2023-01-25T14:24:06.384Z,27.80
2023-01-25T14:29:11.543Z,27.70
2023-01-25T14:34:15.637Z,27.70
2023-01-25T14:39:17.062Z,27.60
2023-01-25T14:44:18.477Z,27.60
2023-01-25T14:49:19.880Z,27.60
2023-01-25T14:54:21.304Z,27.60
2023-01-25T14:59:22.730Z,27.60
2023-01-25T15:04:24.136Z,27.60
2023-01-25T15:09:25.536Z,27.40
2023-01-25T15:14:26.963Z,27.40
2023-01-25T15:19:28.371Z,27.40
2023-01-25T15:24:29.778Z,27.50
2023-01-25T15:29:31.224Z,27.40
2023-01-25T15:34:32.622Z,27.50
2023-01-25T15:39:34.027Z,27.60
2023-01-25T15:44:35.446Z,27.70
2023-01-25T15:49:36.864Z,27.70
2023-01-25T15:54:39.552Z,27.60
2023-01-25T15:59:42.277Z,27.60
2023-01-25T16:04:43.705Z,27.50
2023-01-25T16:09:45.109Z,27.60
2023-01-25T16:14:46.517Z,27.50
2023-01-25T16:19:47.952Z,27.50
2023-01-25T16:24:49.360Z,27.50
2023-01-25T16:29:50.760Z,27.50
2023-01-25T16:34:52.169Z,27.50
2023-01-25T16:39:53.589Z,27.50
2023-01-25T16:44:54.998Z,27.30
2023-01-25T16:49:56.444Z,26.60
2023-01-25T16:54:57.995Z,26.80
2023-01-25T17:00:00.985Z,27.20
2023-01-25T17:05:03.773Z,27.40
2023-01-25T17:10:05.186Z,27.60
2023-01-25T17:15:06.587Z,28.00
2023-01-25T17:20:08.208Z,28.40
2023-01-25T17:25:09.698Z,28.60
2023-01-25T17:30:11.500Z,28.90
2023-01-25T17:35:13.033Z,29.10
2023-01-25T17:40:14.434Z,29.40
2023-01-25T17:45:15.882Z,29.60
2023-01-25T17:50:17.384Z,29.90
2023-01-25T17:55:18.869Z,30.20
2023-01-25T18:00:20.278Z,29.40
2023-01-25T18:05:21.683Z,29.20
2023-01-25T18:10:23.090Z,29.10
2023-01-25T18:15:24.501Z,29.20
2023-01-25T18:20:25.904Z,29.30
2023-01-25T18:25:27.317Z,29.40
2023-01-25T18:30:28.754Z,29.50
2023-01-25T18:35:30.160Z,29.60
2023-01-25T18:40:31.560Z,29.40
2023-01-25T18:45:33.032Z,29.50
2023-01-25T18:50:34.445Z,29.70
2023-01-25T18:55:35.846Z,29.90
2023-01-25T19:00:37.261Z,30.00
2023-01-25T19:05:38.668Z,30.20
2023-01-25T19:10:40.073Z,30.60
2023-01-25T19:15:41.494Z,30.60
2023-01-25T19:20:42.936Z,30.60
2023-01-25T19:25:45.156Z,30.40
2023-01-25T19:30:46.578Z,30.20
2023-01-25T19:35:47.981Z,30.00
2023-01-25T19:40:49.388Z,30.00
2023-01-25T19:45:50.791Z,30.00
2023-01-25T19:50:52.245Z,30.10
2023-01-25T19:55:53.780Z,30.20
2023-01-25T20:00:55.223Z,30.30
2023-01-25T20:05:56.639Z,30.40
2023-01-25T20:10:58.050Z,31.20
2023-01-25T20:15:59.482Z,31.30
2023-01-25T20:21:00.913Z,31.30
2023-01-25T20:26:02.336Z,31.40
2023-01-25T20:31:04.047Z,29.40
2023-01-25T20:36:05.679Z,30.00
2023-01-25T20:41:07.116Z,30.20
2023-01-25T20:46:08.554Z,30.30
2023-01-25T20:51:09.993Z,30.40
2023-01-25T20:56:11.420Z,30.10
2023-01-25T21:01:12.946Z,30.10
2023-01-25T21:06:14.381Z,30.20
2023-01-25T21:11:15.801Z,30.20
2023-01-25T21:16:17.259Z,30.20
2023-01-25T21:21:18.803Z,30.40
2023-01-25T21:26:20.262Z,30.70
2023-01-25T21:31:21.935Z,31.50
2023-01-25T21:36:23.377Z,32.00
2023-01-25T21:41:24.838Z,33.20
2023-01-25T21:46:26.278Z,34.40
2023-01-25T21:51:27.691Z,35.10
2023-01-25T21:56:29.254Z,34.30
2023-01-25T22:01:30.720Z,34.10
2023-01-25T22:06:32.195Z,34.40
2023-01-25T22:11:33.665Z,34.50
2023-01-25T22:16:35.242Z,34.30
2023-01-25T22:21:36.664Z,32.90
2023-01-25T22:26:38.068Z,32.70
2023-01-25T22:31:39.932Z,32.80
2023-01-25T22:36:41.427Z,32.80
2023-01-25T22:41:42.873Z,32.90
2023-01-25T22:46:44.315Z,33.00
2023-01-25T22:51:45.785Z,33.30
2023-01-25T22:56:47.301Z,33.30
2023-01-25T23:01:48.708Z,33.10
2023-01-25T23:06:50.120Z,32.80
2023-01-25T23:11:51.564Z,32.50
2023-01-25T23:16:53.000Z,32.30
2023-01-25T23:21:54.404Z,32.00
2023-01-25T23:26:55.807Z,31.90
2023-01-25T23:31:57.320Z,32.00
2023-01-25T23:36:58.810Z,32.20
2023-01-25T23:42:00.241Z,32.50
2023-01-25T23:47:01.749Z,32.50
2023-01-25T23:52:03.270Z,32.40
2023-01-25T23:57:04.681Z,32.20
